Time;durP1;ratioP1;P1;durP2;ratioP2;P2;SDS_P1;SDS_P2;PMS_P1;PMS_P2;Temp;Humidity;BMP_temperature;BMP_pressure;BME280_temperature;BME280_humidity;BME280_pressure;Samples;Min_cycle;Max_cycle;Signal;HPM_P1;HPM_P2
2022/04/04 00:02:14;;;;;;;6.97;5.63;;;4.80;57.90;;;-142.21;95.48;112049.66;5065588;28;20612;-74
2022/04/04 00:04:41;;;;;;;7.13;5.80;;;4.80;57.90;;;-142.21;95.75;112049.66;5038910;28;20549;-73
2022/04/04 00:07:10;;;;;;;7.10;5.78;;;4.80;57.90;;;-142.21;95.33;112049.66;5060743;28;20676;-74
2022/04/04 00:09:37;;;;;;;6.53;5.63;;;4.80;58.10;;;-142.21;94.20;112049.66;5055357;28;20208;-74
2022/04/04 00:12:05;;;;;;;7.32;5.85;;;4.80;57.70;;;-142.21;93.68;112049.66;5061142;28;20265;-73
2022/04/04 00:14:33;;;;;;;7.57;6.15;;;4.80;57.80;;;-142.21;93.19;112049.66;5052358;28;20741;-74
2022/04/04 00:17:02;;;;;;;6.55;5.80;;;4.80;57.80;;;-142.21;92.26;112049.66;5068048;28;20237;-74
2022/04/04 00:19:29;;;;;;;7.30;5.75;;;4.70;57.40;;;-142.21;92.40;112049.66;5045157;28;20206;-74
2022/04/04 00:21:57;;;;;;;6.97;5.18;;;4.80;57.20;;;-142.21;92.65;112049.66;5065603;28;20296;-73
2022/04/04 00:24:25;;;;;;;6.80;5.68;;;4.80;57.40;;;-142.21;92.61;112049.66;5063704;28;20209;-74
2022/04/04 00:26:55;;;;;;;6.18;5.30;;;4.70;57.60;;;-142.21;92.37;112049.66;5059801;28;20209;-74
2022/04/04 00:29:22;;;;;;;9.35;5.72;;;4.60;57.70;;;-142.21;92.14;112049.66;5065290;28;20193;-73
2022/04/04 00:31:50;;;;;;;9.55;6.07;;;4.60;57.60;;;-142.21;92.52;112049.66;5062757;28;20592;-73
2022/04/04 00:34:19;;;;;;;7.00;6.25;;;4.50;57.90;;;-142.21;92.78;112049.66;5070149;28;20221;-73
2022/04/04 00:36:46;;;;;;;6.85;6.15;;;4.50;58.10;;;-142.21;92.57;112049.66;5057724;28;20281;-73
2022/04/04 00:39:15;;;;;;;5.80;5.20;;;4.40;58.00;;;-142.21;92.38;112049.66;5056133;28;20225;-74
2022/04/04 00:41:43;;;;;;;6.75;5.63;;;4.40;58.00;;;-142.21;92.52;112049.66;5056629;28;20194;-74
2022/04/04 00:44:11;;;;;;;8.23;6.13;;;4.40;58.00;;;-142.21;91.69;112049.66;5050568;28;20191;-74
2022/04/04 00:46:42;;;;;;;6.38;5.43;;;4.50;57.90;;;-142.21;91.45;112049.66;5042590;28;20251;-74
2022/04/04 00:49:11;;;;;;;6.28;5.53;;;4.50;57.80;;;-142.21;91.96;112049.66;5076847;28;20212;-74
2022/04/04 00:51:40;;;;;;;6.15;5.40;;;4.50;57.90;;;-142.21;91.55;112049.66;5077735;28;20666;-76
2022/04/04 00:54:08;;;;;;;7.30;5.63;;;4.60;57.80;;;-142.21;92.00;112049.66;5084560;28;20708;-74
2022/04/04 00:56:37;;;;;;;7.13;5.63;;;4.60;57.70;;;-142.21;91.61;112049.66;5073188;28;20289;-73
2022/04/04 00:59:07;;;;;;;6.55;5.95;;;4.60;58.30;;;-142.21;91.11;112049.66;5075571;28;20285;-73
2022/04/04 01:01:35;;;;;;;6.55;5.32;;;4.50;57.60;;;-142.21;90.86;112049.66;5074497;28;20669;-73
2022/04/04 01:04:02;;;;;;;9.40;6.13;;;4.50;57.30;;;-142.21;90.90;112049.66;5061192;28;20197;-73
2022/04/04 01:06:29;;;;;;;6.10;5.50;;;4.50;57.50;;;-142.21;90.99;112049.66;5055924;28;20220;-75
2022/04/04 01:08:58;;;;;;;8.13;6.10;;;4.50;57.60;;;-142.21;91.51;112049.66;5058488;28;20201;-74
2022/04/04 01:11:26;;;;;;;7.00;5.40;;;4.50;58.40;;;-142.21;91.21;112049.66;5074093;28;20229;-74
2022/04/04 01:13:53;;;;;;;7.75;5.80;;;4.50;57.60;;;-142.21;91.32;112049.66;5058689;28;20228;-74
2022/04/04 01:16:20;;;;;;;10.15;6.03;;;4.40;57.70;;;-142.21;91.03;112049.66;5056520;28;20297;-74
2022/04/04 01:18:47;;;;;;;6.15;5.28;;;4.60;57.70;;;-142.21;91.13;112049.66;5056629;28;20294;-73
2022/04/04 01:21:20;;;;;;;7.93;5.90;;;4.40;57.70;;;-142.21;91.82;112049.66;5071328;28;20247;-73
2022/04/04 01:23:51;;;;;;;9.95;5.97;;;4.30;57.80;;;-142.21;91.57;112049.66;5073753;28;20220;-73
2022/04/04 01:26:21;;;;;;;7.88;5.10;;;4.40;57.80;;;-142.21;92.62;112049.66;5075551;28;20195;-73
2022/04/04 01:28:48;;;;;;;6.85;5.57;;;4.40;57.90;;;-142.21;93.37;112049.66;5068533;28;20293;-74
2022/04/04 01:31:15;;;;;;;8.27;5.30;;;4.30;57.90;;;-142.21;92.66;112049.66;5055738;28;20214;-73
2022/04/04 01:33:42;;;;;;;7.50;5.43;;;4.40;57.90;;;-142.21;92.90;112049.66;5044115;28;20205;-73
2022/04/04 01:36:10;;;;;;;5.57;4.93;;;4.40;57.90;;;-142.21;93.69;112049.66;5064937;28;20568;-74
2022/04/04 01:38:37;;;;;;;6.20;4.70;;;4.30;57.90;;;-142.21;93.98;112049.66;5072868;28;20201;-74
2022/04/04 01:41:04;;;;;;;7.20;5.10;;;4.30;57.80;;;-142.21;94.42;112049.66;5073955;28;20239;-73
2022/04/04 01:43:33;;;;;;;8.55;5.60;;;4.30;57.90;;;-142.21;94.42;112049.66;5051844;28;20565;-74
2022/04/04 01:48:44;;;;;;;7.60;5.65;;;4.40;57.90;;;-142.21;93.88;112049.66;5071655;28;20192;-74
2022/04/04 01:51:12;;;;;;;5.97;4.90;;;4.30;57.90;;;-142.21;93.51;112049.66;5069257;28;20289;-74
2022/04/04 01:53:39;;;;;;;6.35;4.97;;;4.40;57.90;;;-142.21;93.14;112049.66;5041269;28;20205;-74
2022/04/04 01:56:07;;;;;;;5.97;5.30;;;4.40;57.70;;;-142.21;92.59;112049.66;5037489;28;20289;-74
2022/04/04 01:58:36;;;;;;;5.97;5.30;;;4.40;57.50;;;-142.21;92.45;112049.66;5066961;28;20228;-75
2022/04/04 02:01:10;;;;;;;9.00;4.82;;;4.30;57.70;;;-142.21;91.99;112049.66;5064821;28;20201;-74
2022/04/04 02:03:38;;;;;;;5.78;5.03;;;4.30;57.90;;;-142.21;91.40;112049.66;5059808;28;20218;-74
2022/04/04 02:06:05;;;;;;;6.43;4.97;;;4.40;57.90;;;-142.21;91.75;112049.66;5047695;28;20282;-74
2022/04/04 02:08:34;;;;;;;6.18;5.53;;;4.10;57.90;;;-142.21;92.97;112049.66;5069212;28;20228;-74
2022/04/04 02:11:02;;;;;;;7.00;5.43;;;4.10;58.40;;;-142.21;94.91;112049.66;5062078;28;20256;-74
2022/04/04 02:13:30;;;;;;;8.75;5.80;;;4.00;58.50;;;-142.21;95.36;112049.66;5065567;28;20280;-74
2022/04/04 02:16:01;;;;;;;8.70;5.90;;;4.00;58.50;;;-142.21;94.88;112049.66;5074044;28;20224;-74
2022/04/04 02:18:29;;;;;;;7.70;5.85;;;4.00;58.60;;;-142.21;94.85;112049.66;5071730;28;20605;-73
2022/04/04 02:20:57;;;;;;;12.07;6.85;;;4.00;58.70;;;-142.21;94.78;112049.66;5021457;28;20257;-74
2022/04/04 02:23:27;;;;;;;8.95;6.20;;;3.90;58.80;;;-142.21;93.86;112049.66;5054867;28;20605;-74
2022/04/04 02:25:56;;;;;;;10.15;6.70;;;4.00;58.90;;;-142.21;93.88;112049.66;5044107;28;20206;-73
2022/04/04 02:28:24;;;;;;;10.48;6.15;;;3.90;58.30;;;-142.21;92.76;112049.66;5072322;28;20305;-73
2022/04/04 02:30:52;;;;;;;7.78;5.93;;;4.10;57.90;;;-142.21;92.90;112049.66;5065038;28;21063;-74
2022/04/04 02:33:23;;;;;;;10.02;7.00;;;4.10;57.90;;;-142.21;93.22;112049.66;5059549;28;20227;-74
2022/04/04 02:35:53;;;;;;;8.02;6.28;;;4.10;58.50;;;-142.21;92.49;112049.66;5072922;28;20304;-74
2022/04/04 02:38:23;;;;;;;8.75;6.72;;;4.20;57.70;;;-142.21;93.14;112049.66;5059811;28;20587;-73
2022/04/04 02:40:51;;;;;;;11.43;7.60;;;4.10;57.80;;;-142.21;93.28;112049.66;5057187;28;20197;-73
2022/04/04 02:43:19;;;;;;;8.00;5.88;;;4.10;57.70;;;-142.21;92.64;112049.66;5072375;28;20288;-74
2022/04/04 02:45:47;;;;;;;7.57;6.40;;;4.10;57.80;;;-142.21;93.37;112049.66;5063716;28;20190;-73
2022/04/04 02:48:15;;;;;;;7.28;5.50;;;4.20;57.60;;;-142.21;92.59;112049.66;5060085;28;20292;-73
2022/04/04 02:50:44;;;;;;;7.57;5.90;;;4.10;57.40;;;-142.21;91.55;112049.66;5071771;28;20201;-73
2022/04/04 02:53:12;;;;;;;8.73;6.13;;;4.20;57.10;;;-142.21;91.65;112049.66;5059011;28;20229;-74
2022/04/04 02:58:20;;;;;;;9.15;6.15;;;4.10;56.90;;;-142.21;90.94;112049.66;5009752;28;20228;-73
2022/04/04 03:00:48;;;;;;;7.10;5.78;;;4.10;57.30;;;-142.21;90.89;112049.66;5053672;28;20248;-74
2022/04/04 03:03:15;;;;;;;9.27;5.97;;;4.10;57.30;;;-142.21;90.32;112049.66;5061014;28;20205;-73
2022/04/04 03:05:44;;;;;;;7.90;5.85;;;3.90;57.30;;;-142.21;91.09;112049.66;5061784;28;20197;-73
2022/04/04 03:08:11;;;;;;;8.00;6.10;;;4.00;57.30;;;-142.21;91.29;112049.66;5052798;28;20201;-73
2022/04/04 03:10:38;;;;;;;10.82;6.70;;;4.10;58.00;;;-142.21;90.94;112049.66;5063018;28;20285;-74
2022/04/04 03:13:06;;;;;;;7.18;6.18;;;3.90;58.00;;;-142.21;90.78;112049.66;5043568;28;20522;-73
2022/04/04 03:15:35;;;;;;;7.93;6.00;;;3.80;58.30;;;-142.21;91.19;112049.66;5062192;28;20220;-74
2022/04/04 03:18:04;;;;;;;12.60;7.03;;;3.80;58.30;;;-142.21;91.27;112049.66;5060056;28;20741;-74
2022/04/04 03:20:33;;;;;;;7.03;5.70;;;3.70;58.10;;;-142.21;90.73;112049.66;5040399;28;20614;-74
2022/04/04 03:23:02;;;;;;;9.48;5.93;;;3.80;57.80;;;-142.21;90.67;112049.66;5041341;28;20292;-73
2022/04/04 03:25:31;;;;;;;8.13;6.07;;;3.80;57.60;;;-142.21;91.05;112049.66;5052069;28;20205;-73
2022/04/04 03:27:58;;;;;;;8.88;6.57;;;3.80;57.60;;;-142.21;91.47;112049.66;5036662;28;20197;-75
2022/04/04 03:30:28;;;;;;;8.40;6.20;;;3.80;58.20;;;-142.21;92.02;112049.66;5052269;28;20202;-73
2022/04/04 03:32:58;;;;;;;6.65;5.70;;;3.70;58.10;;;-142.21;91.82;112049.66;5049127;28;20292;-75
2022/04/04 03:35:27;;;;;;;7.25;5.75;;;3.70;58.00;;;-142.21;91.72;112049.66;5050891;28;20221;-75
2022/04/04 03:37:57;;;;;;;7.93;5.28;;;3.60;58.20;;;-142.21;92.16;112049.66;5037504;28;20202;-74
2022/04/04 03:40:26;;;;;;;7.22;5.32;;;3.50;58.50;;;-142.21;92.03;112049.66;5051802;28;20210;-73
2022/04/04 03:42:56;;;;;;;9.15;5.47;;;3.50;58.30;;;-142.21;92.20;112049.66;5033316;28;20202;-75
2022/04/04 03:45:25;;;;;;;7.03;5.13;;;3.60;58.50;;;-142.21;92.43;112049.66;5043462;28;20289;-73
2022/04/04 03:47:54;;;;;;;7.43;5.43;;;3.50;58.50;;;-142.21;92.44;112049.66;5064961;28;20208;-73
2022/04/04 03:50:22;;;;;;;6.30;5.05;;;3.50;58.60;;;-142.21;91.79;112049.66;5056965;28;20205;-73
2022/04/04 03:52:52;;;;;;;6.97;5.13;;;3.40;58.80;;;-142.21;91.71;112049.66;5036366;28;20229;-75
2022/04/04 03:55:22;;;;;;;7.93;5.15;;;3.40;58.90;;;-142.21;90.98;112049.66;5060964;28;20540;-75
2022/04/04 03:57:52;;;;;;;7.07;4.80;;;3.30;58.90;;;-142.21;90.54;112049.66;5045551;28;20305;-74
2022/04/04 04:00:23;;;;;;;7.57;5.05;;;3.20;58.60;;;-142.21;90.29;112049.66;5042950;28;20198;-74
2022/04/04 04:02:51;;;;;;;5.72;4.75;;;3.40;59.00;;;-142.21;90.14;112049.66;5037823;28;20195;-74
2022/04/04 04:05:19;;;;;;;5.10;4.25;;;3.20;59.70;;;-142.21;90.09;112049.66;5052757;28;20297;-74
2022/04/04 04:07:46;;;;;;;5.95;4.13;;;3.20;59.00;;;-142.21;90.08;112049.66;5049370;28;20523;-74
2022/04/04 04:10:14;;;;;;;8.15;4.75;;;3.20;58.90;;;-142.21;89.28;112049.66;5052598;28;20212;-74
2022/04/04 04:12:43;;;;;;;6.47;4.53;;;3.20;58.60;;;-142.21;90.51;112049.66;5067315;28;20260;-73
2022/04/04 04:15:17;;;;;;;5.40;4.38;;;3.30;58.50;;;-142.21;91.92;112049.66;5055189;28;20228;-74
2022/04/04 04:17:46;;;;;;;5.68;4.28;;;3.30;58.40;;;-142.21;92.75;112049.66;5042472;28;20272;-73
2022/04/04 04:20:20;;;;;;;7.18;4.72;;;3.30;58.50;;;-142.21;93.23;112049.66;5058349;28;20630;-74
2022/04/04 04:22:52;;;;;;;5.53;4.28;;;3.30;58.30;;;-142.21;93.20;112049.66;5066944;28;20288;-73
2022/04/04 04:25:20;;;;;;;6.35;4.68;;;3.30;58.40;;;-142.21;93.99;112049.66;5060753;28;20192;-75
2022/04/04 04:27:48;;;;;;;5.65;5.00;;;3.30;58.40;;;-142.21;93.88;112049.66;5068544;28;20699;-74
2022/04/04 04:30:17;;;;;;;5.50;4.50;;;3.30;58.60;;;-142.21;95.09;112049.66;5052410;28;20632;-73
2022/04/04 04:32:48;;;;;;;5.82;4.50;;;3.30;58.60;;;-142.21;95.81;112049.66;5051292;28;20273;-73
2022/04/04 04:35:16;;;;;;;6.05;4.47;;;3.30;59.10;;;-142.21;94.68;112049.66;5068060;28;20569;-74
2022/04/04 04:37:45;;;;;;;6.53;4.55;;;3.40;58.90;;;-142.21;94.28;112049.66;5058289;28;20289;-73
2022/04/04 04:40:14;;;;;;;6.97;3.90;;;3.60;58.80;;;-142.21;94.05;112049.66;5052230;28;20213;-73
2022/04/04 04:42:43;;;;;;;7.22;4.40;;;3.30;58.30;;;-142.21;94.75;112049.66;5071994;28;20220;-73
2022/04/04 04:45:12;;;;;;;5.70;4.32;;;3.30;58.10;;;-142.21;94.93;112049.66;5072214;28;20227;-72
2022/04/04 04:47:42;;;;;;;6.35;4.80;;;3.30;58.40;;;-142.21;94.97;112049.66;5054779;28;20274;-73
2022/04/04 04:50:11;;;;;;;6.13;4.85;;;3.30;58.10;;;-142.21;94.46;112049.66;5049285;28;20229;-73
2022/04/04 04:52:38;;;;;;;5.75;4.20;;;3.20;58.10;;;-142.21;95.14;112049.66;5044503;28;20191;-74
2022/04/04 04:55:07;;;;;;;7.55;4.63;;;3.20;58.00;;;-142.21;94.82;112049.66;5053157;28;20218;-74
2022/04/04 04:57:34;;;;;;;6.47;4.65;;;3.10;58.50;;;-142.21;94.35;112049.66;5057690;28;20217;-74
2022/04/04 05:00:03;;;;;;;7.55;4.30;;;3.10;58.50;;;-142.21;94.74;112049.66;5069262;28;20198;-75
2022/04/04 05:02:31;;;;;;;5.80;5.00;;;3.10;58.60;;;-142.21;94.89;112049.66;5047627;28;20206;-75
2022/04/04 05:05:00;;;;;;;6.32;4.40;;;3.20;58.60;;;-142.21;94.65;112049.66;5064047;28;20197;-74
2022/04/04 05:07:28;;;;;;;6.05;4.45;;;3.10;58.30;;;-142.21;94.48;112049.66;5066597;28;20658;-75
2022/04/04 05:09:55;;;;;;;6.22;4.50;;;3.10;58.30;;;-142.21;94.00;112049.66;5069780;28;20197;-75
2022/04/04 05:12:22;;;;;;;5.30;4.20;;;3.10;58.20;;;-142.21;93.91;112049.66;5059623;28;20780;-76
2022/04/04 05:14:50;;;;;;;6.55;4.70;;;3.10;58.10;;;-142.21;94.12;112049.66;5064059;28;20610;-74
2022/04/04 05:17:17;;;;;;;4.38;3.92;;;3.10;58.30;;;-142.21;94.41;112049.66;5053497;28;20237;-74
2022/04/04 05:19:45;;;;;;;6.60;4.68;;;3.20;58.30;;;-142.21;94.54;112049.66;5067016;28;20205;-75
2022/04/04 05:22:14;;;;;;;5.20;4.28;;;3.20;58.10;;;-142.21;94.47;112049.66;5072351;28;20248;-75
2022/04/04 05:24:41;;;;;;;5.32;4.55;;;3.20;58.10;;;-142.21;94.53;112049.66;5059798;28;20201;-75
2022/04/04 05:27:09;;;;;;;6.15;4.50;;;3.20;58.20;;;-142.21;94.20;112049.66;5075693;28;20233;-75
2022/04/04 05:29:37;;;;;;;6.10;4.22;;;3.20;58.10;;;-142.21;93.94;112049.66;5055345;28;20228;-75
2022/04/04 05:32:05;;;;;;;5.35;4.28;;;3.30;58.20;;;-142.21;94.21;112049.66;5062305;28;20258;-77
2022/04/04 05:34:32;;;;;;;5.65;4.25;;;3.20;58.20;;;-142.21;94.47;112049.66;5063057;28;20262;-75
2022/04/04 05:37:00;;;;;;;5.28;4.35;;;3.20;58.10;;;-142.21;94.70;112049.66;5063066;28;20333;-74
2022/04/04 05:39:29;;;;;;;6.95;4.28;;;3.20;58.20;;;-142.21;94.95;112049.66;5043388;28;20198;-74
2022/04/04 05:41:56;;;;;;;5.85;4.70;;;3.20;58.40;;;-142.21;94.76;112049.66;5059897;28;20271;-75
2022/04/04 05:44:24;;;;;;;5.13;4.63;;;3.20;58.40;;;-142.21;95.12;112049.66;5054521;28;20202;-75
2022/04/04 05:46:51;;;;;;;4.97;4.25;;;3.20;58.40;;;-142.21;94.93;112049.66;5054951;28;20228;-74
2022/04/04 05:49:20;;;;;;;4.88;4.38;;;3.20;58.40;;;-142.21;94.60;112049.66;5056129;28;20554;-75
2022/04/04 05:51:48;;;;;;;5.80;5.10;;;3.30;58.40;;;-142.21;94.18;112049.66;5046589;28;20213;-75
2022/04/04 05:54:15;;;;;;;5.55;4.63;;;3.40;58.70;;;-142.21;93.89;112049.66;5058251;28;20511;-75
2022/04/04 05:56:44;;;;;;;6.45;4.93;;;3.40;58.60;;;-142.21;92.72;112049.66;5071819;28;20238;-74
2022/04/04 05:59:13;;;;;;;5.65;4.78;;;3.50;59.00;;;-142.21;93.72;112049.66;5074352;28;20215;-74
2022/04/04 06:01:41;;;;;;;5.32;4.47;;;3.50;58.40;;;-142.21;94.04;112049.66;5068689;28;20204;-74
2022/04/04 06:04:08;;;;;;;6.55;4.78;;;3.60;58.40;;;-142.21;94.27;112049.66;5050915;28;20203;-74
2022/04/04 06:06:35;;;;;;;7.18;4.95;;;3.60;58.40;;;-142.21;95.06;112049.66;5035555;28;20297;-73
2022/04/04 06:09:02;;;;;;;5.95;4.95;;;3.60;58.50;;;-142.21;95.54;112049.66;5034923;28;20209;-73
2022/04/04 06:11:29;;;;;;;5.80;4.88;;;3.70;58.60;;;-142.21;95.36;112049.66;5035056;28;20238;-74
2022/04/04 06:13:58;;;;;;;5.53;4.95;;;3.70;58.80;;;-142.21;95.79;112049.66;5035569;28;20207;-74
2022/04/04 06:16:26;;;;;;;5.97;4.63;;;3.70;58.90;;;-142.21;95.21;112049.66;5065983;28;20225;-74
2022/04/04 06:18:53;;;;;;;6.85;5.07;;;3.90;59.00;;;-142.21;95.29;112049.66;5075372;28;20228;-74
2022/04/04 06:21:21;;;;;;;6.45;5.20;;;4.00;58.90;;;-142.21;95.33;112049.66;5074235;28;20743;-73
2022/04/04 06:23:48;;;;;;;6.90;5.35;;;4.20;58.60;;;-142.21;95.28;112049.66;5075703;28;20266;-75
2022/04/04 06:26:15;;;;;;;6.95;5.30;;;4.40;58.60;;;-142.21;95.52;112049.66;5075894;28;20212;-73
2022/04/04 06:28:42;;;;;;;8.55;5.60;;;4.60;58.60;;;-142.21;95.64;112049.66;5076386;28;20243;-74
2022/04/04 06:31:11;;;;;;;7.30;5.45;;;4.70;58.20;;;-142.21;96.07;112049.66;5075360;28;20209;-74
2022/04/04 06:33:39;;;;;;;7.93;5.63;;;4.80;58.30;;;-142.21;96.49;112049.66;5076100;28;20212;-74
2022/04/04 06:36:06;;;;;;;7.18;5.15;;;5.00;58.40;;;-142.21;96.42;112049.66;5074071;28;20391;-74
2022/04/04 06:38:34;;;;;;;6.07;5.47;;;5.10;58.20;;;-142.21;96.30;112049.66;5073801;28;20205;-73
2022/04/04 06:41:01;;;;;;;5.63;4.68;;;5.30;57.80;;;-142.21;95.41;112049.66;5073830;28;20212;-74
2022/04/04 06:43:28;;;;;;;6.10;4.80;;;5.50;57.60;;;-142.21;94.25;112049.66;5073803;28;20209;-73
2022/04/04 06:45:55;;;;;;;5.95;5.25;;;5.80;57.20;;;-142.21;94.63;112049.66;5074111;28;20291;-74
2022/04/04 06:48:24;;;;;;;5.25;4.60;;;6.20;57.00;;;-142.21;94.52;112049.66;5059092;28;20293;-73
2022/04/04 06:50:51;;;;;;;5.75;4.55;;;6.40;56.50;;;-142.21;91.41;112049.66;5053897;28;20229;-73
2022/04/04 06:53:21;;;;;;;5.60;4.35;;;6.70;55.50;;;-142.21;91.24;112049.66;5053892;28;20642;-73
2022/04/04 06:55:49;;;;;;;8.00;4.68;;;6.80;54.60;;;-142.21;90.84;112049.66;5053576;28;20233;-73
2022/04/04 06:58:16;;;;;;;5.47;4.95;;;6.80;54.50;;;-142.21;90.08;112049.66;5053642;28;20275;-73
2022/04/04 07:00:45;;;;;;;5.57;4.80;;;6.90;54.20;;;-142.21;89.95;112049.66;5053288;28;20228;-74
2022/04/04 07:03:19;;;;;;;4.75;4.22;;;7.00;53.50;;;-142.21;90.35;112049.66;5053785;28;20233;-73
2022/04/04 07:05:48;;;;;;;4.65;3.95;;;7.00;53.30;;;-142.21;88.93;112049.66;5053413;28;20265;-73
2022/04/04 07:08:15;;;;;;;5.30;3.90;;;7.10;53.10;;;-142.21;88.74;112049.66;5053201;28;20296;-74
2022/04/04 07:10:42;;;;;;;5.50;3.90;;;7.20;53.10;;;-142.21;87.17;112049.66;5052931;28;20530;-74
2022/04/04 07:13:10;;;;;;;4.97;4.07;;;7.20;53.10;;;-142.21;85.30;112049.66;5057982;28;20472;-74
2022/04/04 07:15:38;;;;;;;5.67;3.90;;;7.40;52.30;;;-142.21;85.04;112049.66;5053325;28;20535;-73
2022/04/04 07:18:05;;;;;;;4.83;4.07;;;7.40;51.60;;;-142.21;86.39;112049.66;5053559;28;20444;-73
2022/04/04 07:20:32;;;;;;;5.57;3.90;;;7.60;51.90;;;-142.21;85.39;112049.66;5054532;28;20433;-73
2022/04/04 07:23:03;;;;;;;5.30;4.53;;;7.70;51.90;;;-142.21;83.83;112049.66;5060191;28;20476;-72
2022/04/04 07:25:30;;;;;;;4.40;4.00;;;7.60;51.10;;;-142.21;82.26;112049.66;5053579;28;20832;-72
2022/04/04 07:27:58;;;;;;;4.93;4.13;;;7.50;50.70;;;-142.21;82.78;112049.66;5052576;28;20566;-74
2022/04/04 07:30:26;;;;;;;5.53;4.53;;;7.30;51.20;;;-142.21;82.35;112049.66;5055806;28;20667;-73
2022/04/04 07:32:53;;;;;;;6.47;4.33;;;7.20;51.10;;;-142.21;81.90;112049.66;5073629;28;20421;-74
2022/04/04 07:35:22;;;;;;;5.53;4.15;;;7.40;51.40;;;-142.21;82.73;112049.66;5069857;28;20448;-73
2022/04/04 07:37:51;;;;;;;5.53;4.10;;;7.50;51.50;;;-142.21;81.64;112049.66;5052524;28;20233;-74
2022/04/04 07:40:22;;;;;;;5.80;4.55;;;7.50;51.10;;;-142.21;81.13;112049.66;5052985;28;20884;-75
2022/04/04 07:42:54;;;;;;;6.32;4.68;;;7.40;50.80;;;-142.21;82.00;112049.66;5052498;28;20709;-70
2022/04/04 07:45:22;;;;;;;6.50;5.13;;;7.30;51.20;;;-142.21;78.86;112049.66;5054212;28;20194;-74
2022/04/04 07:47:50;;;;;;;5.67;4.93;;;7.50;51.10;;;-142.21;78.40;112049.66;5033236;28;20469;-72
2022/04/04 07:50:18;;;;;;;8.07;4.93;;;7.40;50.30;;;-142.21;77.99;112049.66;5052149;28;20498;-73
2022/04/04 07:52:45;;;;;;;5.23;4.60;;;7.60;50.90;;;-142.21;76.65;112049.66;5052302;28;20944;-73
2022/04/04 07:55:12;;;;;;;5.30;4.77;;;7.90;51.10;;;-142.21;75.11;112049.66;5052115;28;20860;-73
2022/04/04 07:57:42;;;;;;;4.97;4.27;;;8.40;49.30;;;-142.21;72.53;112049.66;5052540;28;20516;-74
2022/04/04 08:00:14;;;;;;;5.37;4.87;;;8.80;49.00;;;-142.21;73.45;112049.66;5052365;28;20531;-74
2022/04/04 08:02:42;;;;;;;5.20;4.70;;;9.10;48.80;;;-142.21;72.17;112049.66;5052745;28;20428;-74
2022/04/04 08:05:10;;;;;;;5.87;5.03;;;9.10;48.30;;;-142.21;72.23;112049.66;5052098;28;20538;-74
2022/04/04 08:07:38;;;;;;;6.30;4.83;;;9.00;48.20;;;-142.21;73.30;112049.66;5052063;28;20448;-73
2022/04/04 08:10:06;;;;;;;5.53;4.87;;;9.00;48.30;;;-142.21;71.64;112049.66;5051897;28;20484;-74
2022/04/04 08:12:33;;;;;;;5.53;4.53;;;8.90;48.50;;;-142.21;74.34;112049.66;5052130;28;20578;-74
2022/04/04 08:15:02;;;;;;;7.63;4.80;;;8.80;49.00;;;-142.21;67.45;112049.66;5052397;28;20917;-74
2022/04/04 08:17:30;;;;;;;5.47;4.80;;;8.70;47.80;;;-142.21;69.51;112049.66;5052408;28;20487;-74
2022/04/04 08:19:58;;;;;;;6.83;4.80;;;8.80;48.50;;;-142.21;67.25;112049.66;5052555;28;20762;-74
2022/04/04 08:22:25;;;;;;;5.33;4.60;;;8.90;48.30;;;-142.21;61.56;112049.66;5051758;28;20987;-74
2022/04/04 08:24:52;;;;;;;5.17;4.67;;;9.00;47.50;;;-142.21;63.64;112049.66;5052156;28;20483;-74
2022/04/04 08:27:22;;;;;;;5.30;4.57;;;8.90;47.30;;;-142.21;61.58;112049.66;5055494;28;20487;-75
2022/04/04 08:29:49;;;;;;;5.20;4.70;;;8.90;46.10;;;-142.21;63.00;112049.66;5060270;28;20241;-74
2022/04/04 08:32:18;;;;;;;7.00;4.90;;;8.90;47.20;;;-142.21;62.60;112049.66;5051766;28;20444;-74
2022/04/04 08:34:45;;;;;;;5.90;5.30;;;9.10;47.40;;;-142.21;61.15;112049.66;5052067;28;20440;-74
2022/04/04 08:37:13;;;;;;;7.03;4.60;;;9.20;47.30;;;-142.21;61.60;112049.66;5051937;28;20988;-74
2022/04/04 08:39:40;;;;;;;5.60;4.67;;;9.40;47.10;;;-142.21;60.21;112049.66;5052081;28;20514;-74
2022/04/04 08:42:08;;;;;;;5.40;4.60;;;9.50;46.90;;;-142.21;59.78;112049.66;5051968;28;20483;-74
2022/04/04 08:44:39;;;;;;;6.37;4.80;;;9.60;46.70;;;-142.21;56.81;112049.66;5051486;28;20454;-74
2022/04/04 08:47:08;;;;;;;7.03;4.83;;;9.60;45.70;;;-142.21;54.53;112049.66;5014017;28;20445;-75
2022/04/04 08:49:36;;;;;;;4.70;3.97;;;9.70;44.70;;;-142.21;53.61;112049.66;5031540;28;20445;-74
2022/04/04 08:52:06;;;;;;;5.83;4.43;;;9.70;44.40;;;-142.21;55.04;112049.66;5032209;28;20507;-74
2022/04/04 08:54:34;;;;;;;5.27;4.23;;;9.90;45.30;;;-142.21;55.97;112049.66;5033342;28;20848;-73
2022/04/04 08:57:01;;;;;;;4.70;4.20;;;10.10;44.40;;;-142.21;54.72;112049.66;5036140;28;20493;-73
2022/04/04 08:59:28;;;;;;;5.77;4.57;;;10.80;44.50;;;-142.21;51.57;112049.66;5035336;28;20449;-73
2022/04/04 09:01:56;;;;;;;4.60;4.07;;;11.40;42.70;;;-142.21;50.54;112049.66;5035951;28;20457;-73
2022/04/04 09:04:24;;;;;;;4.10;3.70;;;11.40;40.90;;;-142.21;50.17;112049.66;5052576;28;20531;-73
2022/04/04 09:06:56;;;;;;;4.83;4.03;;;11.50;39.50;;;-142.21;50.97;112049.66;5055350;28;20542;-74
2022/04/04 09:09:26;;;;;;;4.33;3.93;;;12.20;41.50;;;-142.21;48.80;112049.66;5059201;28;20448;-73
2022/04/04 09:12:06;;;;;;;3.77;3.40;;;13.60;40.90;;;-142.21;100.00;57916.31;5057595;28;20475;-74
2022/04/04 09:14:39;;;;;;;4.13;3.73;;;14.90;39.10;;;-142.21;100.00;57916.31;5060557;28;20459;-74
2022/04/04 09:17:10;;;;;;;4.17;3.67;;;15.90;34.10;;;-142.21;100.00;57916.31;5057963;28;20472;-74
2022/04/04 09:19:38;;;;;;;5.67;4.00;;;17.00;35.70;;;-142.21;100.00;57916.31;5054687;28;20468;-74
2022/04/04 09:22:09;;;;;;;4.17;3.53;;;17.80;34.10;;;-142.21;100.00;57916.31;5059916;28;20539;-75
2022/04/04 09:24:52;;;;;;;4.67;3.83;;;18.40;31.10;;;-142.21;100.00;57916.31;5075242;28;20194;-75
2022/04/04 09:27:26;;;;;;;3.90;3.60;;;19.10;31.90;;;-142.21;48.80;112049.66;5075617;28;20189;-74
2022/04/04 09:29:57;;;;;;;4.77;3.83;;;20.00;32.10;;;-142.21;44.86;112049.66;5074656;28;20189;-74
2022/04/04 09:32:39;;;;;;;4.10;3.70;;;20.30;29.50;;;-142.21;44.53;112049.66;5074704;28;20192;-74
2022/04/04 09:35:13;;;;;;;3.87;3.50;;;20.40;29.90;;;-142.21;46.42;112049.66;5063247;28;20245;-74
2022/04/04 09:37:44;;;;;;;4.33;3.80;;;20.40;31.80;;;-142.21;44.40;112049.66;5054944;28;20211;-74
2022/04/04 09:40:16;;;;;;;4.70;4.30;;;20.20;30.00;;;-142.21;43.75;112049.66;5055381;28;20191;-74
2022/04/04 09:42:57;;;;;;;4.80;3.87;;;20.30;29.50;;;-142.21;42.70;112049.66;5055190;28;20584;-74
2022/04/04 09:45:28;;;;;;;4.43;4.03;;;20.00;29.50;;;-142.21;41.95;112049.66;5054780;28;20273;-75
2022/04/04 09:47:57;;;;;;;4.23;3.70;;;19.10;29.70;;;-142.21;42.17;112049.66;5054328;28;20196;-74
2022/04/04 09:50:45;;;;;;;4.67;4.27;;;18.30;30.20;;;-142.21;42.43;112049.66;5054782;28;20212;-74
2022/04/04 09:53:19;;;;;;;4.67;4.20;;;17.70;30.90;;;-142.21;42.48;112049.66;5054336;28;20489;-75
2022/04/04 09:55:49;;;;;;;7.03;4.70;;;17.20;31.30;;;-142.21;42.24;112049.66;5054807;28;20438;-74
2022/04/04 09:58:19;;;;;;;5.37;4.23;;;16.80;32.20;;;-142.21;40.58;112049.66;5053986;28;20586;-75
2022/04/04 10:00:48;;;;;;;4.50;4.10;;;16.30;30.90;;;-142.21;41.99;112049.66;5055138;28;20448;-74
2022/04/04 10:03:19;;;;;;;4.50;3.93;;;15.60;30.80;;;-142.21;41.90;112049.66;5053892;28;20451;-74
2022/04/04 10:05:52;;;;;;;4.60;4.20;;;15.20;32.70;;;-142.21;41.89;112049.66;5053941;28;20432;-74
2022/04/04 10:08:25;;;;;;;5.13;4.30;;;15.30;33.60;;;-142.21;41.12;112049.66;5053766;28;20429;-74
2022/04/04 10:10:55;;;;;;;4.90;4.40;;;15.50;33.50;;;-142.21;40.89;112049.66;5054383;28;20650;-75
2022/04/04 10:13:23;;;;;;;6.73;4.17;;;15.70;32.30;;;-142.21;39.57;112049.66;5053698;28;20534;-74
2022/04/04 10:15:53;;;;;;;5.53;4.70;;;15.80;32.00;;;-142.21;39.39;112049.66;5054266;28;20933;-74
2022/04/04 10:18:22;;;;;;;4.63;4.23;;;15.60;30.70;;;-142.21;40.49;112049.66;5053526;28;20492;-74